Jackson, SC (29831)

7:43 AM EDT on September 02, 2015 (GMT -0400)
Pine Log Rd & Storm Branch Rd | | Change Station
CLOSE
Current Station
Personal Weather Station
Location: Beech Island, SC
Elevation: 472 ft
Nearby Weather Stations

Elev 472 ft 33.46 °N, 81.85 °W | Updated 9 minutes ago

Clear
Clear
71.1 °F
Feels Like 71.1 °F
N
0.0
Wind Variable Wind from South

Today
High -- | Low -- °F
--% Chance of Precip.
Yesterday
High -- | Low -- °F
Precip. -- in
7:01 AM 7:51 PM
Waning Gibbous, 81% visible
Pressure 30.08 in
Visibility 2.0 miles
Clouds Few 200 ft
Dew Point 70 °F
Humidity 98%
Rainfall 0.00 in
Snow Depth Not available.
UV 0 out of 12
Pollen 8.50 out of 12
Air Quality Not available.
Flu Activity Not available.
METAR KAGS 021053Z 00000KT 2SM BR FEW002 20/20 A3009 RMK AO2 SLP185 T02000200
Pressure 30.08 in
Visibility 2.0 miles
Clouds Few 200 ft
Dew Point 70 °F
Humidity 98%
Rainfall 0.00 in
Snow Depth Not available.
UV 0 out of 12
Pollen 8.50 out of 12
Air Quality Not available.
Flu Activity Not available.
METAR KAGS 021053Z 00000KT 2SM BR FEW002 20/20 A3009 RMK AO2 SLP185 T02000200

10-Day Weather Forecast

×

Almanac

Astronomy

Sep. 02, 2015 Rise Set
Actual Time
Civil Twilight
Nautical Twilight
Astronomical Twilight
Moon
Length of Visible Light
Length of Day
Tomorrow will be .
, % of the Moon is Illuminated

Today's Extremes

State Highs State Lows

Community

WunderPhotos

Upload Photos

1,851,736 photos uploaded!

WunderBlogs® & News

Nearby

Air Quality

  Air Quality AQ Index Pollutant
Not available.

Snow Depth

Station Depth Elevation

Earthquake Activity

City Distance Mag. Time & Date
Minimum magnitude displayed is 2.5.

Coastal Water Temperatures

Place Temperature

Stations

Nearby Weather Stations

Station Location Temp. Windchill Dew Point Humidity Wind Precip. Elev Updated Type